Selma, OR

7:08 PM PDT on March 29, 2015 (GMT -0700)
OREGON BUILDERS GUILD LLC 97523 | | Change Station
CLOSE
Current Station
Personal Weather Station
Location: Cave Junction, OR
Elevation: 1343 ft
Nearby Weather Stations
Active Advisory: Special Statement

Elev 1343 ft 42.16 °N, 123.65 °W | Updated 14 minutes ago

Clear
Clear
67.6 °F
Feels Like 67.6 °F
N
2.0
Wind Variable Wind from NNW

Today
High -- | Low -- °F
--% Chance of Precip.
Yesterday
High -- | Low -- °F
Precip. -- in
7:02 AM 7:36 PM
Waxing Gibbous, 76% visible
Pressure 30.11 in
Visibility 10.0 miles
Clouds Clear
Dew Point 49 °F
Humidity 51%
Rainfall 0.00 in
Snow Depth Not available.
UV 0 out of 12
Pollen 9.40 out of 12
Air Quality Not available.
Flu Activity Not available.
METAR KMFR 300153Z 00000KT 10SM CLR 22/02 A3011 RMK AO2 SLP195 T02220022

More Conditions Fewer Conditions

Pressure 30.11 in
Visibility 10.0 miles
Clouds Clear
Dew Point 49 °F
Humidity 51%
Rainfall 0.00 in
Snow Depth Not available.
UV 0 out of 12
Pollen 9.40 out of 12
Air Quality Not available.
Flu Activity Not available.
METAR KMFR 300153Z 00000KT 10SM CLR 22/02 A3011 RMK AO2 SLP195 T02220022

More Conditions Fewer Conditions

10-Day Weather Forecast

Almanac

Astronomy

Mar. 29, 2015 Rise Set
Actual Time
Civil Twilight
Nautical Twilight
Astronomical Twilight
Moon
Length of Visible Light
Length of Day
Tomorrow will be .
, % of the Moon is Illuminated

Today's Extremes

State Highs State Lows

Community

WunderPhotos

Upload Photos

1,809,405 photos uploaded!

WunderBlogs® & News

Nearby

Air Quality

  Air Quality AQ Index Pollutant
Not available.

Snow Depth

Station Depth Elevation

Earthquake Activity

City Distance Mag. Time & Date
Minimum magnitude displayed is 2.5.

Coastal Water Temperatures

Place Temperature

Stations

Nearby Weather Stations

Station Location Temp. Windchill Dew Point Humidity Wind Precip. Elev Updated Type
                   
Special Statement
Statement as of 3:21 PM PDT on March 29, 2015

... Sharp change to colder weather at midweek...

A potent Spring cold front will move across the area Monday night
into Tuesday. Mild weather Monday will give way to a much colder
air mass Tuesday. Away from the coast... high temperatures Tuesday
will be 15-25 degrees lower than they are on Monday. The front
will bring a period of light to moderate precipitation Monday
night, followed by showery weather with isolated thunderstorms
Tuesday and Wednesday. The air mass will be cold enough that some
of the heavier showers may contain small hail or graupel. Snow
levels may reach down as low as 3000 feet Tuesday night into
Wednesday. Those intending to travel... have outdoor plans... or
have sensitive outdoor plants... should stay tuned for additional
updates regarding this sharp change to colder weather at midweek.